Time;durP1;ratioP1;P1;durP2;ratioP2;P2;SDS_P1;SDS_P2;PMS_P1;PMS_P2;Temp;Humidity;BMP_temperature;BMP_pressure;BME280_temperature;BME280_humidity;BME280_pressure;Samples;Min_cycle;Max_cycle;Signal;HPM_P1;HPM_P2
2023/10/05 00:00:36;;;;;;;;;28.00;28.00;;;;;;;;5092399;28;11233;-81
2023/10/05 00:03:05;;;;;;;;;31.75;30.25;;;;;;;;5093687;28;8839;-82
2023/10/05 00:05:32;;;;;;;;;31.00;26.50;;;;;;;;5093650;28;11099;-83
2023/10/05 00:07:57;;;;;;;;;25.00;25.00;;;;;;;;5093331;28;11070;-83
2023/10/05 00:10:22;;;;;;;;;31.00;27.00;;;;;;;;5093189;28;11099;-83
2023/10/05 00:12:48;;;;;;;;;37.00;31.50;;;;;;;;5093611;28;8823;-83
2023/10/05 00:15:17;;;;;;;;;28.50;27.00;;;;;;;;5093958;28;8796;-82
2023/10/05 00:17:43;;;;;;;;;28.50;27.25;;;;;;;;5093642;28;8928;-82
2023/10/05 00:20:11;;;;;;;;;33.75;30.00;;;;;;;;5093527;28;10967;-82
2023/10/05 00:22:37;;;;;;;;;26.75;25.25;;;;;;;;5093266;28;8796;-83
2023/10/05 00:25:04;;;;;;;;;30.00;26.75;;;;;;;;5093263;28;11060;-80
2023/10/05 00:27:29;;;;;;;;;31.25;26.75;;;;;;;;5093310;28;8817;-81
2023/10/05 00:29:57;;;;;;;;;31.50;27.25;;;;;;;;5092932;28;11532;-81
2023/10/05 00:32:23;;;;;;;;;32.75;31.00;;;;;;;;5093189;28;8892;-80
2023/10/05 00:34:52;;;;;;;;;28.25;27.00;;;;;;;;5093351;28;10968;-82
2023/10/05 00:37:17;;;;;;;;;35.25;32.25;;;;;;;;5093287;28;11123;-81
2023/10/05 00:39:47;;;;;;;;;33.50;29.75;;;;;;;;5091690;28;11102;-81
2023/10/05 00:42:14;;;;;;;;;32.75;28.50;;;;;;;;5092934;28;9704;-82
2023/10/05 00:44:41;;;;;;;;;33.50;30.50;;;;;;;;5092807;28;11007;-81
2023/10/05 00:47:07;;;;;;;;;36.25;33.00;;;;;;;;5092674;28;11226;-83
2023/10/05 00:49:51;;;;;;;;;33.00;31.75;;;;;;;;5092988;28;11414;-81
2023/10/05 00:52:18;;;;;;;;;32.00;27.25;;;;;;;;5093087;28;8816;-81
2023/10/05 00:54:48;;;;;;;;;34.25;31.75;;;;;;;;5092835;28;11440;-83
2023/10/05 00:57:15;;;;;;;;;32.75;30.75;;;;;;;;5092751;28;11456;-81
2023/10/05 00:59:40;;;;;;;;;31.00;28.00;;;;;;;;5091268;28;11234;-81
2023/10/05 01:02:14;;;;;;;;;32.50;30.00;;;;;;;;5090976;28;12116;-81
2023/10/05 01:04:56;;;;;;;;;28.50;25.50;;;;;;;;5092288;28;8788;-82
2023/10/05 01:07:56;;;;;;;;;34.75;29.75;;;;;;;;5092531;28;11155;-82
2023/10/05 01:12:51;;;;;;;;;31.75;29.25;;;;;;;;5092386;28;11496;-82
2023/10/05 01:15:19;;;;;;;;;35.25;33.75;;;;;;;;5092503;28;11255;-81
2023/10/05 01:17:44;;;;;;;;;37.25;31.75;;;;;;;;5092424;28;12151;-81
2023/10/05 01:20:22;;;;;;;;;37.50;31.50;;;;;;;;5092330;28;11528;-81
2023/10/05 01:22:47;;;;;;;;;28.75;27.00;;;;;;;;5091726;28;8823;-77
2023/10/05 01:25:16;;;;;;;;;33.75;30.00;;;;;;;;5090901;28;11582;-80
2023/10/05 01:27:45;;;;;;;;;33.50;29.50;;;;;;;;5090847;28;8934;-74
2023/10/05 01:30:14;;;;;;;;;36.25;34.25;;;;;;;;5092061;28;11442;-75
2023/10/05 01:32:42;;;;;;;;;32.00;30.25;;;;;;;;5091207;28;11473;-75
2023/10/05 01:35:08;;;;;;;;;37.25;34.75;;;;;;;;5090508;28;11457;-75
2023/10/05 01:37:36;;;;;;;;;39.00;34.50;;;;;;;;5091787;28;11435;-75
2023/10/05 01:40:03;;;;;;;;;31.25;29.25;;;;;;;;5091116;28;11564;-75
2023/10/05 01:42:34;;;;;;;;;33.75;31.75;;;;;;;;5091675;28;11245;-76
2023/10/05 01:44:59;;;;;;;;;31.50;30.25;;;;;;;;5090265;28;11497;-76
2023/10/05 01:47:26;;;;;;;;;33.25;30.50;;;;;;;;5090357;28;8812;-76
2023/10/05 01:49:51;;;;;;;;;35.50;32.00;;;;;;;;5091547;28;8796;-75
2023/10/05 01:52:16;;;;;;;;;36.00;31.50;;;;;;;;5089996;28;11477;-76
2023/10/05 01:54:43;;;;;;;;;38.25;32.25;;;;;;;;5091653;28;8810;-75
2023/10/05 01:57:09;;;;;;;;;33.25;31.50;;;;;;;;5089719;28;8808;-76
2023/10/05 01:59:35;;;;;;;;;32.25;30.25;;;;;;;;5091539;28;12205;-76
2023/10/05 02:02:00;;;;;;;;;32.50;31.50;;;;;;;;5089786;28;11507;-76
2023/10/05 02:04:26;;;;;;;;;30.50;28.75;;;;;;;;5091194;28;8811;-75
2023/10/05 02:06:53;;;;;;;;;32.75;30.00;;;;;;;;5091253;28;8800;-76
2023/10/05 02:09:21;;;;;;;;;29.75;27.50;;;;;;;;5091086;28;8780;-76
2023/10/05 02:11:47;;;;;;;;;30.00;27.25;;;;;;;;5090367;28;11478;-76
2023/10/05 02:14:16;;;;;;;;;23.75;23.00;;;;;;;;5091016;28;11474;-76
2023/10/05 02:16:50;;;;;;;;;33.25;27.50;;;;;;;;5091011;28;11249;-75
2023/10/05 02:19:16;;;;;;;;;28.75;28.75;;;;;;;;5091005;28;11466;-75
2023/10/05 02:21:42;;;;;;;;;27.25;27.00;;;;;;;;5090847;28;12493;-75
2023/10/05 02:24:22;;;;;;;;;29.75;26.75;;;;;;;;5090514;28;11446;-76
2023/10/05 02:29:26;;;;;;;;;29.00;26.00;;;;;;;;5090744;28;11131;-75
2023/10/05 02:34:33;;;;;;;;;29.25;26.50;;;;;;;;5090982;28;11210;-75
2023/10/05 02:37:00;;;;;;;;;27.00;24.75;;;;;;;;5089467;28;11245;-75
2023/10/05 02:39:25;;;;;;;;;29.00;27.50;;;;;;;;5090620;28;11120;-75
2023/10/05 02:41:54;;;;;;;;;27.00;22.75;;;;;;;;5090436;28;11430;-75
2023/10/05 02:46:47;;;;;;;;;27.75;26.75;;;;;;;;5090786;28;11452;-76
2023/10/05 02:49:15;;;;;;;;;29.50;26.75;;;;;;;;5090042;28;11447;-76
2023/10/05 02:51:41;;;;;;;;;30.50;27.00;;;;;;;;5090548;28;9576;-76
2023/10/05 02:54:10;;;;;;;;;29.00;26.75;;;;;;;;5089007;28;11457;-75
2023/10/05 02:56:35;;;;;;;;;31.25;30.50;;;;;;;;5090319;28;11463;-76
2023/10/05 02:59:07;;;;;;;;;28.75;26.75;;;;;;;;5090362;28;11427;-75
2023/10/05 03:01:33;;;;;;;;;32.25;31.25;;;;;;;;5089181;28;8772;-75
2023/10/05 03:04:03;;;;;;;;;26.25;26.00;;;;;;;;5089408;28;11473;-76
2023/10/05 03:06:29;;;;;;;;;25.25;25.00;;;;;;;;5089004;28;8931;-76
2023/10/05 03:08:57;;;;;;;;;26.25;24.75;;;;;;;;5088220;28;11584;-76
2023/10/05 03:11:25;;;;;;;;;32.75;28.75;;;;;;;;5090220;28;8788;-76
2023/10/05 03:13:50;;;;;;;;;28.00;26.00;;;;;;;;5090109;28;11486;-76
2023/10/05 03:16:17;;;;;;;;;26.25;26.00;;;;;;;;5090185;28;11458;-76
2023/10/05 03:18:43;;;;;;;;;33.75;27.50;;;;;;;;5090376;28;8910;-76
2023/10/05 03:21:14;;;;;;;;;25.25;22.00;;;;;;;;5089846;28;11508;-76
2023/10/05 03:23:41;;;;;;;;;27.75;27.00;;;;;;;;5090573;28;11468;-76
2023/10/05 03:26:07;;;;;;;;;26.25;25.75;;;;;;;;5093789;28;11465;-76
2023/10/05 03:28:35;;;;;;;;;25.50;23.50;;;;;;;;5094271;28;11434;-76
2023/10/05 03:31:06;;;;;;;;;29.00;27.75;;;;;;;;5094165;28;11926;-76
2023/10/05 03:33:33;;;;;;;;;33.25;22.75;;;;;;;;5095089;28;11582;-76
2023/10/05 03:36:00;;;;;;;;;29.00;26.50;;;;;;;;5094106;28;11486;-77
2023/10/05 03:38:28;;;;;;;;;27.75;24.00;;;;;;;;5094125;28;11443;-76
2023/10/05 03:40:54;;;;;;;;;31.00;27.00;;;;;;;;5093764;28;11155;-76
2023/10/05 03:43:21;;;;;;;;;27.00;26.00;;;;;;;;5093908;28;12168;-76
2023/10/05 03:45:46;;;;;;;;;25.50;25.50;;;;;;;;5093556;28;11446;-76
2023/10/05 03:48:11;;;;;;;;;31.25;27.50;;;;;;;;5093790;28;11442;-75
2023/10/05 03:50:37;;;;;;;;;26.50;24.25;;;;;;;;5093892;28;8792;-75
2023/10/05 03:53:09;;;;;;;;;28.00;27.00;;;;;;;;5094695;28;8840;-76
2023/10/05 03:55:35;;;;;;;;;30.75;27.75;;;;;;;;5093867;28;11495;-76
2023/10/05 03:58:01;;;;;;;;;28.00;27.50;;;;;;;;5093799;28;11451;-76
2023/10/05 04:00:35;;;;;;;;;26.75;26.00;;;;;;;;5094299;28;8815;-76
2023/10/05 04:03:02;;;;;;;;;29.50;26.25;;;;;;;;5093063;28;8912;-76
2023/10/05 04:05:27;;;;;;;;;31.00;27.50;;;;;;;;5093241;28;11517;-77
2023/10/05 04:07:54;;;;;;;;;29.25;26.75;;;;;;;;5092737;28;11465;-76
2023/10/05 04:10:45;;;;;;;;;24.50;21.50;;;;;;;;5093511;28;8839;-74
2023/10/05 04:13:11;;;;;;;;;30.75;29.50;;;;;;;;5093408;28;11485;-81
2023/10/05 04:15:38;;;;;;;;;27.50;27.50;;;;;;;;5093081;28;11459;-81
2023/10/05 04:18:03;;;;;;;;;26.75;26.50;;;;;;;;5093346;28;8773;-81
2023/10/05 04:20:29;;;;;;;;;29.25;25.50;;;;;;;;5093149;28;11445;-71
2023/10/05 04:22:55;;;;;;;;;24.50;24.25;;;;;;;;5093258;28;8835;-73
2023/10/05 04:25:20;;;;;;;;;28.50;27.25;;;;;;;;5092868;28;9511;-74
2023/10/05 04:27:48;;;;;;;;;26.25;25.00;;;;;;;;5093179;28;8784;-76
2023/10/05 04:30:17;;;;;;;;;30.75;26.75;;;;;;;;5092997;28;8800;-77
2023/10/05 04:32:43;;;;;;;;;30.50;26.50;;;;;;;;5092776;28;11542;-80
2023/10/05 04:35:20;;;;;;;;;31.00;28.25;;;;;;;;5092470;28;11441;-78
2023/10/05 04:37:47;;;;;;;;;34.75;32.25;;;;;;;;5092960;28;11433;-78
2023/10/05 04:40:15;;;;;;;;;25.75;25.00;;;;;;;;5091987;28;11564;-72
2023/10/05 04:42:41;;;;;;;;;35.50;30.00;;;;;;;;5092729;28;11439;-73
2023/10/05 04:45:11;;;;;;;;;26.50;24.50;;;;;;;;5092933;28;11420;-73
2023/10/05 04:47:37;;;;;;;;;24.50;20.50;;;;;;;;5091938;28;11445;-72
2023/10/05 04:50:05;;;;;;;;;25.75;24.25;;;;;;;;5092945;28;11417;-71
2023/10/05 04:52:33;;;;;;;;;38.25;33.50;;;;;;;;5092600;28;11611;-69
2023/10/05 04:55:14;;;;;;;;;28.50;26.00;;;;;;;;5092571;28;11423;-72
2023/10/05 04:57:55;;;;;;;;;38.50;33.75;;;;;;;;5104956;27;13476;-72
2023/10/05 05:06:20;;;;;;;;;28.50;27.75;;;;;;;;5108145;28;11465;-79
2023/10/05 05:08:25;;;;;;;;;28.75;26.50;;;;;;;;5102695;28;11510;-74
2023/10/05 05:10:50;;;;;;;;;32.25;27.50;;;;;;;;5106210;28;11456;-79
2023/10/05 05:13:15;;;;;;;;;38.25;34.00;;;;;;;;5107724;28;8832;-79
2023/10/05 05:15:42;;;;;;;;;35.00;32.00;;;;;;;;5106160;28;8932;-80
2023/10/05 05:18:14;;;;;;;;;33.75;31.75;;;;;;;;5098404;28;8820;-79
2023/10/05 05:20:40;;;;;;;;;30.50;28.50;;;;;;;;5087192;28;12322;-80
2023/10/05 05:23:07;;;;;;;;;44.50;35.25;;;;;;;;5087859;28;11506;-84
2023/10/05 05:25:32;;;;;;;;;31.00;29.75;;;;;;;;5087766;28;8863;-84
2023/10/05 05:28:01;;;;;;;;;37.25;32.00;;;;;;;;5086439;28;11451;-77
2023/10/05 05:30:26;;;;;;;;;29.25;24.50;;;;;;;;5086377;28;8841;-79
2023/10/05 07:55:06;;;;;;;;;28.50;27.00;;;;;;;;5105110;27;13482;-73
2023/10/05 07:57:31;;;;;;;;;33.25;30.50;;;;;;;;5108223;28;11469;-73
2023/10/05 08:02:32;;;;;;;;;27.25;27.25;;;;;;;;5118072;27;9716;-73
2023/10/05 08:04:58;;;;;;;;;27.50;27.00;;;;;;;;5128066;27;10777;-72
2023/10/05 08:07:23;;;;;;;;;27.50;26.00;;;;;;;;5127783;27;9485;-72
2023/10/05 08:09:49;;;;;;;;;14.75;14.25;;;;;;;;5128227;27;8775;-72
2023/10/05 08:12:15;;;;;;;;;26.50;26.50;;;;;;;;5128234;27;8783;-72
2023/10/05 08:14:40;;;;;;;;;27.25;25.50;;;;;;;;5128031;27;8969;-72
2023/10/05 08:17:05;;;;;;;;;27.25;26.00;;;;;;;;5127983;27;9812;-72
2023/10/05 08:19:31;;;;;;;;;24.25;22.75;;;;;;;;5127655;27;8806;-72
2023/10/05 08:21:56;;;;;;;;;21.33;20.33;;;;;;;;5127854;27;8818;-72
2023/10/05 08:24:23;;;;;;;;;27.50;26.25;;;;;;;;5127187;27;9579;-72
2023/10/05 08:26:49;;;;;;;;;25.00;25.00;;;;;;;;5127860;27;8875;-72
2023/10/05 08:29:16;;;;;;;;;22.00;21.00;;;;;;;;5127790;27;9033;-72
2023/10/05 08:31:44;;;;;;;;;22.75;21.25;;;;;;;;5126186;27;8819;-72
2023/10/05 08:34:10;;;;;;;;;25.50;23.25;;;;;;;;5127487;27;8899;-72
2023/10/05 08:36:35;;;;;;;;;24.00;24.00;;;;;;;;5127694;27;8863;-72
2023/10/05 08:39:03;;;;;;;;;25.67;25.67;;;;;;;;5127466;27;8787;-72
2023/10/05 08:41:35;;;;;;;;;25.50;25.50;;;;;;;;5127020;27;8820;-72
2023/10/05 08:44:09;;;;;;;;;22.25;21.00;;;;;;;;5127429;27;8914;-72
2023/10/05 08:46:44;;;;;;;;;21.00;21.00;;;;;;;;5127213;27;8803;-72
2023/10/05 08:49:10;;;;;;;;;20.75;20.75;;;;;;;;5120146;27;8802;-72
2023/10/05 08:51:36;;;;;;;;;23.33;23.00;;;;;;;;5106835;28;8844;-78
2023/10/05 08:54:02;;;;;;;;;21.00;20.00;;;;;;;;5105277;28;8890;-76
2023/10/05 08:56:30;;;;;;;;;22.25;21.25;;;;;;;;5104934;28;8770;-75
2023/10/05 08:58:59;;;;;;;;;20.25;20.00;;;;;;;;5104334;28;8922;-73
2023/10/05 09:01:29;;;;;;;;;30.00;29.00;;;;;;;;5104533;28;8828;-75
2023/10/05 09:06:30;;;;;;;;;19.00;19.00;;;;;;;;5090874;28;8928;-76
2023/10/05 09:11:32;;;;;;;;;40.33;35.00;;;;;;;;5092781;28;8805;-75
2023/10/05 09:16:47;;;;;;;;;24.50;23.25;;;;;;;;5092508;28;8801;-75
2023/10/05 09:19:37;;;;;;;;;24.25;23.25;;;;;;;;5092528;28;8773;-76
2023/10/05 09:22:10;;;;;;;;;32.00;30.33;;;;;;;;5093080;28;8787;-75
2023/10/05 09:24:36;;;;;;;;;21.50;20.25;;;;;;;;5092464;28;8930;-75
2023/10/05 09:27:15;;;;;;;;;18.25;18.25;;;;;;;;5092283;28;8908;-75
2023/10/05 09:29:41;;;;;;;;;23.25;22.25;;;;;;;;5091763;28;8821;-75
2023/10/05 09:32:11;;;;;;;;;36.00;33.00;;;;;;;;5093409;28;8840;-75
2023/10/05 09:34:49;;;;;;;;;25.75;22.75;;;;;;;;5092316;28;8849;-75
2023/10/05 09:37:16;;;;;;;;;20.75;20.25;;;;;;;;5092530;28;8831;-74
2023/10/05 09:39:49;;;;;;;;;32.33;30.00;;;;;;;;5090906;28;8924;-73
2023/10/05 09:42:17;;;;;;;;;21.50;20.00;;;;;;;;5092269;28;9334;-74
2023/10/05 09:44:45;;;;;;;;;29.00;29.00;;;;;;;;5092252;28;8809;-77
2023/10/05 09:47:12;;;;;;;;;19.25;18.00;;;;;;;;5092098;28;9187;-74
2023/10/05 09:49:39;;;;;;;;;18.25;18.25;;;;;;;;5092030;28;8810;-72
2023/10/05 09:52:05;;;;;;;;;15.50;15.50;;;;;;;;5091524;28;8782;-71
2023/10/05 09:54:31;;;;;;;;;19.00;18.67;;;;;;;;5091705;28;8992;-74
2023/10/05 09:56:56;;;;;;;;;23.00;19.67;;;;;;;;5089747;28;9520;-78
2023/10/05 09:59:25;;;;;;;;;31.75;29.50;;;;;;;;5091443;28;8886;-77
2023/10/05 10:01:51;;;;;;;;;21.00;20.33;;;;;;;;5097142;28;8841;-77
2023/10/05 10:04:34;;;;;;;;;37.00;34.00;;;;;;;;5094101;28;9041;-78
2023/10/05 10:07:01;;;;;;;;;22.33;19.67;;;;;;;;5091597;28;8789;-79
2023/10/05 10:09:27;;;;;;;;;22.00;19.33;;;;;;;;5091192;28;9029;-77
2023/10/05 10:11:52;;;;;;;;;27.67;26.33;;;;;;;;5091586;28;9743;-76
2023/10/05 10:14:22;;;;;;;;;43.25;36.00;;;;;;;;5091380;28;8949;-77
2023/10/05 10:16:52;;;;;;;;;18.00;18.00;;;;;;;;5089284;28;8810;-78
2023/10/05 10:19:21;;;;;;;;;33.75;32.50;;;;;;;;5091550;28;9019;-80
2023/10/05 10:21:57;;;;;;;;;37.25;33.00;;;;;;;;5091432;28;9844;-80
2023/10/05 10:24:24;;;;;;;;;23.00;22.75;;;;;;;;5090944;28;9905;-73
2023/10/05 10:27:07;;;;;;;;;19.00;17.33;;;;;;;;5091249;28;9710;-75
2023/10/05 10:29:59;;;;;;;;;21.67;19.67;;;;;;;;5091229;28;9094;-73
2023/10/05 10:32:31;;;;;;;;;21.00;17.67;;;;;;;;5098636;28;9153;-72
2023/10/05 10:35:09;;;;;;;;;20.33;20.00;;;;;;;;5111532;28;9069;-74
2023/10/05 10:37:44;;;;;;;;;24.67;23.67;;;;;;;;5111702;28;9169;-73
2023/10/05 10:40:25;;;;;;;;;37.75;33.50;;;;;;;;5111419;28;9317;-72
2023/10/05 10:43:20;;;;;;;;;35.25;33.00;;;;;;;;5111522;28;9901;-71
2023/10/05 10:45:46;;;;;;;;;42.00;32.00;;;;;;;;5110445;28;9707;-71
2023/10/05 10:50:45;;;;;;;;;15.67;15.00;;;;;;;;5091026;28;9967;-72
2023/10/05 10:53:17;;;;;;;;;27.25;26.25;;;;;;;;5090707;28;8990;-72
2023/10/05 10:55:45;;;;;;;;;24.33;22.33;;;;;;;;5090849;28;9647;-75
2023/10/05 10:58:16;;;;;;;;;18.00;17.00;;;;;;;;5090966;28;9198;-74
2023/10/05 11:01:04;;;;;;;;;18.67;17.67;;;;;;;;5091360;28;9123;-72
2023/10/05 11:03:36;;;;;;;;;18.67;17.00;;;;;;;;5090835;28;9202;-71
2023/10/05 11:06:04;;;;;;;;;19.00;18.33;;;;;;;;5090249;28;9056;-71
2023/10/05 11:08:31;;;;;;;;;16.67;15.33;;;;;;;;5090830;28;8905;-71
2023/10/05 11:11:00;;;;;;;;;39.25;34.25;;;;;;;;5089462;28;8954;-73
2023/10/05 11:13:30;;;;;;;;;17.00;15.67;;;;;;;;5090512;28;9871;-73
2023/10/05 11:15:59;;;;;;;;;48.50;40.00;;;;;;;;5089057;28;9029;-73
2023/10/05 11:18:30;;;;;;;;;25.00;23.50;;;;;;;;5090297;28;10457;-71
2023/10/05 11:21:03;;;;;;;;;37.75;33.50;;;;;;;;5090663;28;9440;-70
2023/10/05 11:23:29;;;;;;;;;16.00;15.00;;;;;;;;5090785;28;10146;-77
2023/10/05 11:26:17;;;;;;;;;16.67;14.67;;;;;;;;5089851;28;9291;-77
2023/10/05 11:28:40;;;;;;;;;31.25;25.75;;;;;;;;5070069;28;9044;-76
2023/10/05 11:31:05;;;;;;;;;31.50;30.50;;;;;;;;5070161;28;10328;-73
2023/10/05 11:33:33;;;;;;;;;25.75;25.75;;;;;;;;5110363;28;8802;-70
2023/10/05 11:36:08;;;;;;;;;33.25;31.75;;;;;;;;5111436;28;8779;-72
2023/10/05 11:38:35;;;;;;;;;19.00;18.67;;;;;;;;5104882;28;10098;-73
2023/10/05 11:41:00;;;;;;;;;32.75;29.00;;;;;;;;5085993;28;10200;-72
2023/10/05 11:43:26;;;;;;;;;31.75;30.25;;;;;;;;5088782;28;9846;-74
2023/10/05 11:46:47;;;;;;;;;19.67;19.00;;;;;;;;5088780;28;8785;-73
2023/10/05 11:48:56;;;;;;;;;25.50;21.50;;;;;;;;5082514;28;9130;-71
2023/10/05 11:51:27;;;;;;;;;20.00;18.33;;;;;;;;5088674;28;9550;-74
2023/10/05 11:53:55;;;;;;;;;21.33;19.00;;;;;;;;5088560;28;9429;-73
2023/10/05 11:56:20;;;;;;;;;18.33;16.33;;;;;;;;5089935;28;9115;-73
2023/10/05 11:58:47;;;;;;;;;19.00;19.00;;;;;;;;5088592;28;9040;-72
2023/10/05 12:01:12;;;;;;;;;16.00;15.00;;;;;;;;5095555;22;8844;-71
2023/10/05 12:03:44;;;;;;;;;18.00;18.00;;;;;;;;5050331;28;9203;-70
2023/10/05 12:06:11;;;;;;;;;18.67;18.67;;;;;;;;5032439;28;8816;-71
2023/10/05 12:08:36;;;;;;;;;19.00;17.50;;;;;;;;5050167;28;9119;-70
2023/10/05 12:11:02;;;;;;;;;18.33;16.33;;;;;;;;5050038;28;8799;-71
2023/10/05 12:13:27;;;;;;;;;19.67;17.67;;;;;;;;5050314;28;8816;-71
2023/10/05 12:15:53;;;;;;;;;21.00;18.00;;;;;;;;5049808;28;8827;-71
2023/10/05 12:18:18;;;;;;;;;19.33;18.67;;;;;;;;5050298;28;8808;-71
2023/10/05 12:20:45;;;;;;;;;19.00;17.67;;;;;;;;5050154;28;8802;-71
2023/10/05 12:23:14;;;;;;;;;20.33;19.33;;;;;;;;5032258;28;8839;-71
2023/10/05 12:25:40;;;;;;;;;18.00;17.00;;;;;;;;5049999;28;9177;-71
2023/10/05 12:28:05;;;;;;;;;30.50;28.75;;;;;;;;5049990;28;8935;-71
2023/10/05 12:30:31;;;;;;;;;34.50;31.25;;;;;;;;5050066;28;8776;-71
2023/10/05 12:32:56;;;;;;;;;20.00;19.33;;;;;;;;5031821;28;8899;-71
2023/10/05 12:35:22;;;;;;;;;21.33;21.33;;;;;;;;5049968;28;8806;-71
2023/10/05 12:37:48;;;;;;;;;20.33;20.33;;;;;;;;5049942;28;8772;-69
2023/10/05 12:40:19;;;;;;;;;17.00;17.00;;;;;;;;5051115;28;9542;-71
2023/10/05 12:42:54;;;;;;;;;22.00;20.00;;;;;;;;5053969;28;8827;-71
2023/10/05 12:45:22;;;;;;;;;19.00;17.00;;;;;;;;5036013;28;9348;-71
2023/10/05 12:47:49;;;;;;;;;22.33;19.33;;;;;;;;5053792;28;9108;-68
2023/10/05 12:50:15;;;;;;;;;36.75;33.50;;;;;;;;5053098;28;9054;-70
2023/10/05 12:52:40;;;;;;;;;35.75;31.25;;;;;;;;5053618;28;9954;-70
2023/10/05 12:55:08;;;;;;;;;16.00;14.00;;;;;;;;5053449;28;8803;-71
2023/10/05 12:57:34;;;;;;;;;35.00;31.50;;;;;;;;5053679;28;8845;-70
2023/10/05 12:59:59;;;;;;;;;23.67;22.67;;;;;;;;5035669;28;9726;-71
2023/10/05 13:02:25;;;;;;;;;20.33;19.67;;;;;;;;5053562;28;8835;-70
2023/10/05 13:04:50;;;;;;;;;22.00;20.67;;;;;;;;5053283;28;8930;-71
2023/10/05 13:07:19;;;;;;;;;15.67;15.67;;;;;;;;5053510;28;8808;-70
2023/10/05 13:09:46;;;;;;;;;18.67;17.00;;;;;;;;5052958;28;8800;-70
2023/10/05 13:12:16;;;;;;;;;23.00;22.67;;;;;;;;5035458;28;9131;-69
2023/10/05 13:14:41;;;;;;;;;31.25;29.25;;;;;;;;5053299;28;9312;-69
2023/10/05 13:17:11;;;;;;;;;21.67;21.67;;;;;;;;5053148;28;9859;-71
2023/10/05 13:19:37;;;;;;;;;16.67;15.67;;;;;;;;5053135;28;9510;-69
2023/10/05 13:22:06;;;;;;;;;17.00;16.00;;;;;;;;5035163;28;9055;-70
2023/10/05 13:24:32;;;;;;;;;22.00;21.00;;;;;;;;5052836;28;8815;-70
2023/10/05 13:26:59;;;;;;;;;19.00;18.00;;;;;;;;5053041;28;9188;-70
2023/10/05 13:29:26;;;;;;;;;20.00;19.00;;;;;;;;5034707;28;9250;-69
2023/10/05 13:31:53;;;;;;;;;17.67;17.00;;;;;;;;5052854;28;9305;-71
2023/10/05 13:34:19;;;;;;;;;16.67;15.33;;;;;;;;5053132;28;9763;-70
2023/10/05 13:36:49;;;;;;;;;18.00;18.00;;;;;;;;5052863;28;8935;-70
2023/10/05 13:39:20;;;;;;;;;13.33;13.00;;;;;;;;5035063;28;8967;-70
2023/10/05 13:41:46;;;;;;;;;16.67;15.67;;;;;;;;5052693;28;9173;-70
2023/10/05 13:44:12;;;;;;;;;34.50;31.00;;;;;;;;5034837;28;9046;-71
2023/10/05 13:46:44;;;;;;;;;25.50;24.25;;;;;;;;5052608;28;9518;-71
2023/10/05 13:49:10;;;;;;;;;20.67;20.00;;;;;;;;5034517;28;9511;-71
2023/10/05 13:51:35;;;;;;;;;15.33;15.33;;;;;;;;5052408;28;9181;-70
2023/10/05 13:54:06;;;;;;;;;17.67;17.67;;;;;;;;5052496;28;8820;-70
2023/10/05 13:56:32;;;;;;;;;15.00;14.00;;;;;;;;5052456;28;8776;-70
2023/10/05 13:59:01;;;;;;;;;21.67;19.67;;;;;;;;5034446;28;9043;-70
2023/10/05 14:01:34;;;;;;;;;21.67;19.33;;;;;;;;5052706;28;8792;-71
2023/10/05 14:04:01;;;;;;;;;16.33;15.33;;;;;;;;5052388;28;9176;-70
2023/10/05 14:06:29;;;;;;;;;19.33;19.33;;;;;;;;5051883;28;8903;-71
2023/10/05 14:08:59;;;;;;;;;19.67;16.67;;;;;;;;5034318;28;9214;-71
2023/10/05 14:11:25;;;;;;;;;29.67;29.00;;;;;;;;5052015;28;9089;-70
2023/10/05 14:13:50;;;;;;;;;30.00;29.75;;;;;;;;5034616;28;9522;-71
2023/10/05 14:16:18;;;;;;;;;21.67;18.00;;;;;;;;5034216;28;8792;-71
2023/10/05 14:18:44;;;;;;;;;26.33;24.00;;;;;;;;5034427;28;8811;-71
2023/10/05 14:21:10;;;;;;;;;18.67;18.67;;;;;;;;5052083;28;9236;-71
2023/10/05 14:23:35;;;;;;;;;18.00;16.00;;;;;;;;5052001;28;8804;-72
2023/10/05 14:26:03;;;;;;;;;32.00;31.00;;;;;;;;5051220;28;9627;-71
2023/10/05 14:28:29;;;;;;;;;26.50;24.50;;;;;;;;5052198;28;8877;-71
2023/10/05 14:30:55;;;;;;;;;20.33;17.33;;;;;;;;5051893;28;9656;-71
2023/10/05 14:33:23;;;;;;;;;19.67;18.67;;;;;;;;5051900;28;8847;-69
2023/10/05 14:35:50;;;;;;;;;17.00;17.00;;;;;;;;5051705;28;9269;-71
2023/10/05 14:38:16;;;;;;;;;31.50;26.00;;;;;;;;5033739;28;9133;-70
2023/10/05 14:40:42;;;;;;;;;32.25;31.25;;;;;;;;5051098;28;9884;-69
2023/10/05 14:43:08;;;;;;;;;33.50;31.25;;;;;;;;5051532;28;9984;-69
2023/10/05 14:45:34;;;;;;;;;22.00;18.33;;;;;;;;5051113;28;10811;-72
2023/10/05 14:48:04;;;;;;;;;35.25;32.00;;;;;;;;5051480;28;8784;-71
2023/10/05 14:50:30;;;;;;;;;18.33;18.33;;;;;;;;5051536;28;9538;-73
2023/10/05 14:52:59;;;;;;;;;32.00;30.25;;;;;;;;5051332;28;9189;-76
2023/10/05 14:55:25;;;;;;;;;19.00;17.25;;;;;;;;5048402;28;10098;-70
2023/10/05 14:57:51;;;;;;;;;34.50;31.50;;;;;;;;5033160;28;10426;-71
2023/10/05 15:00:16;;;;;;;;;32.25;30.00;;;;;;;;5050905;28;10225;-74
2023/10/05 15:02:45;;;;;;;;;29.75;29.75;;;;;;;;5050592;28;8906;-73
2023/10/05 15:05:11;;;;;;;;;32.50;29.75;;;;;;;;5051232;28;8804;-73
2023/10/05 15:07:38;;;;;;;;;32.75;28.25;;;;;;;;5047840;28;10080;-72
2023/10/05 15:10:10;;;;;;;;;34.50;31.50;;;;;;;;5050572;28;10183;-69
2023/10/05 15:12:38;;;;;;;;;24.25;21.25;;;;;;;;5050775;28;9820;-72
2023/10/05 15:15:03;;;;;;;;;26.00;25.00;;;;;;;;5050645;28;9507;-72
2023/10/05 15:17:29;;;;;;;;;24.50;21.75;;;;;;;;5050807;28;10355;-75
2023/10/05 15:19:54;;;;;;;;;25.50;21.75;;;;;;;;5050554;28;8803;-72
2023/10/05 15:22:21;;;;;;;;;37.75;31.75;;;;;;;;5050303;28;8800;-77
